createdAt,value
2018-08-11T00:01:43.585Z,99.20
2018-08-11T00:05:46.926Z,99.60
2018-08-11T00:09:49.488Z,99.70
2018-08-11T00:13:52.261Z,99.70
2018-08-11T00:17:54.810Z,99.90
2018-08-11T00:21:57.435Z,99.90
2018-08-11T00:26:00.064Z,99.90
2018-08-11T00:30:02.794Z,99.90
2018-08-11T00:34:05.924Z,99.80
2018-08-11T00:38:08.568Z,99.90
2018-08-11T00:42:11.151Z,99.80
2018-08-11T00:46:13.930Z,99.60
2018-08-11T00:50:21.800Z,99.70
2018-08-11T00:54:24.403Z,99.70
2018-08-11T00:58:28.069Z,99.90
2018-08-11T01:02:30.816Z,99.90
2018-08-11T01:06:33.466Z,99.90
2018-08-11T01:10:36.070Z,99.90
2018-08-11T01:14:38.751Z,99.90
2018-08-11T01:18:41.356Z,99.90
2018-08-11T01:22:44.948Z,99.90
2018-08-11T01:26:47.610Z,99.90
2018-08-11T01:30:50.257Z,99.90
2018-08-11T01:34:53.762Z,99.90
2018-08-11T01:38:56.379Z,99.90
2018-08-11T01:42:59.027Z,99.90
2018-08-11T01:47:01.645Z,99.90
2018-08-11T01:51:04.274Z,99.90
2018-08-11T01:55:06.885Z,99.90
2018-08-11T01:59:09.466Z,99.90
2018-08-11T02:03:12.076Z,99.90
2018-08-11T02:07:14.771Z,99.90
2018-08-11T02:11:17.389Z,99.90
2018-08-11T02:15:19.965Z,99.90
2018-08-11T02:19:22.567Z,99.90
2018-08-11T02:23:25.192Z,99.90
2018-08-11T02:27:27.782Z,99.90
2018-08-11T02:31:30.405Z,99.90
2018-08-11T02:35:33.036Z,99.90
2018-08-11T02:39:35.688Z,99.90
2018-08-11T02:43:38.345Z,99.90
2018-08-11T02:47:40.956Z,99.90
2018-08-11T02:51:43.527Z,99.90
2018-08-11T02:55:46.106Z,99.90
2018-08-11T02:59:48.707Z,99.90
2018-08-11T03:03:51.287Z,99.90
2018-08-11T03:07:53.914Z,99.90
2018-08-11T03:11:56.582Z,99.90
2018-08-11T03:15:59.189Z,99.90
2018-08-11T03:20:02.675Z,99.90
2018-08-11T03:24:05.508Z,99.90
2018-08-11T03:28:08.165Z,99.90
2018-08-11T03:32:10.750Z,99.90
2018-08-11T03:36:13.377Z,99.90
2018-08-11T03:40:15.900Z,99.90
2018-08-11T03:44:18.479Z,99.90
2018-08-11T03:48:21.120Z,99.90
2018-08-11T03:52:23.942Z,99.90
2018-08-11T03:56:26.668Z,99.90
2018-08-11T04:00:29.309Z,99.90
2018-08-11T04:04:32.015Z,99.90
2018-08-11T04:08:34.667Z,99.90
2018-08-11T04:12:37.234Z,99.90
2018-08-11T04:16:39.779Z,99.90
2018-08-11T04:20:42.418Z,99.90
2018-08-11T04:24:45.006Z,99.90
2018-08-11T04:28:47.624Z,99.90
2018-08-11T04:32:50.182Z,99.90
2018-08-11T04:36:52.822Z,99.90
2018-08-11T04:40:55.472Z,99.90
2018-08-11T04:44:58.140Z,99.90
2018-08-11T04:49:00.937Z,99.90
2018-08-11T04:53:03.590Z,99.90
2018-08-11T04:57:06.317Z,99.90
2018-08-11T05:01:08.940Z,99.90
2018-08-11T05:05:11.731Z,99.90
2018-08-11T05:09:14.351Z,99.90
2018-08-11T05:13:16.956Z,99.90
2018-08-11T05:17:19.567Z,99.90
2018-08-11T05:21:22.150Z,99.90
2018-08-11T05:25:24.766Z,99.90
2018-08-11T05:29:27.448Z,99.90
2018-08-11T05:33:30.173Z,99.90
2018-08-11T05:37:32.902Z,99.90
2018-08-11T05:41:35.574Z,99.90
2018-08-11T05:45:38.201Z,99.90
2018-08-11T05:49:40.839Z,99.90
2018-08-11T05:53:43.439Z,99.90
2018-08-11T05:57:46.172Z,99.90
2018-08-11T06:01:48.784Z,99.90
2018-08-11T06:05:51.377Z,99.90
2018-08-11T06:09:53.993Z,99.90
2018-08-11T06:13:56.622Z,99.90
2018-08-11T06:17:59.225Z,99.90
2018-08-11T06:22:01.809Z,99.90
2018-08-11T06:26:04.469Z,99.90
2018-08-11T06:30:08.578Z,99.90
2018-08-11T06:34:11.250Z,99.90
2018-08-11T06:38:13.845Z,99.90
2018-08-11T06:42:16.470Z,99.90
2018-08-11T06:46:19.061Z,99.90
2018-08-11T06:50:22.178Z,99.90
2018-08-11T06:54:24.695Z,99.90
2018-08-11T06:58:27.284Z,99.90
2018-08-11T07:02:29.941Z,99.90
2018-08-11T07:06:32.590Z,99.90
2018-08-11T07:10:35.235Z,99.90
2018-08-11T07:14:37.869Z,99.90
2018-08-11T07:18:40.663Z,99.90
2018-08-11T07:22:43.327Z,99.90
2018-08-11T07:26:45.994Z,99.90
2018-08-11T07:30:48.834Z,99.90
2018-08-11T07:34:52.134Z,99.90
2018-08-11T07:38:54.803Z,99.90
2018-08-11T07:42:57.505Z,99.90
2018-08-11T07:47:00.174Z,99.90
2018-08-11T07:51:02.766Z,99.90
2018-08-11T07:55:05.482Z,99.90
2018-08-11T07:59:08.090Z,99.90
2018-08-11T08:03:10.711Z,99.90
2018-08-11T08:07:13.604Z,99.90
2018-08-11T08:11:16.199Z,99.90
2018-08-11T08:15:18.919Z,99.90
2018-08-11T08:19:21.606Z,99.90
2018-08-11T08:23:24.202Z,99.90
2018-08-11T08:27:26.768Z,99.90
2018-08-11T08:31:30.359Z,99.90
2018-08-11T08:35:32.949Z,99.90
2018-08-11T08:39:35.542Z,99.90
2018-08-11T08:43:38.161Z,99.90
2018-08-11T08:47:40.721Z,99.90
2018-08-11T08:51:43.292Z,99.90
2018-08-11T08:55:45.926Z,99.90
2018-08-11T08:59:48.645Z,99.90
2018-08-11T09:03:51.305Z,99.90
2018-08-11T09:07:53.948Z,99.90
2018-08-11T09:11:57.479Z,99.90
2018-08-11T09:16:00.215Z,99.90
2018-08-11T09:20:02.947Z,99.90
2018-08-11T09:24:05.736Z,99.90
2018-08-11T09:28:08.419Z,99.90
2018-08-11T09:32:11.047Z,99.90
2018-08-11T09:36:13.651Z,99.90
2018-08-11T09:40:16.261Z,99.90
2018-08-11T09:44:18.936Z,99.90
2018-08-11T09:48:21.570Z,99.90
2018-08-11T09:52:24.171Z,99.90
2018-08-11T09:56:26.665Z,99.20
2018-08-11T10:00:34.907Z,98.80
2018-08-11T10:04:37.529Z,98.80
2018-08-11T10:08:40.289Z,99.90
2018-08-11T10:12:43.138Z,99.90
2018-08-11T10:16:45.696Z,99.60
2018-08-11T10:20:48.378Z,97.80
2018-08-11T10:24:50.948Z,97.90
2018-08-11T10:28:53.565Z,97.80
2018-08-11T10:32:56.155Z,98.90
2018-08-11T10:36:58.817Z,99.20
2018-08-11T10:41:01.475Z,99.10
2018-08-11T10:45:04.194Z,97.30
2018-08-11T10:49:07.109Z,96.90
2018-08-11T10:53:09.716Z,97.10
2018-08-11T10:57:12.287Z,98.20
2018-08-11T11:01:18.959Z,97.90
2018-08-11T11:05:21.581Z,98.60
2018-08-11T11:09:24.301Z,97.20
2018-08-11T11:13:26.902Z,99.10
2018-08-11T11:17:29.450Z,98.80
2018-08-11T11:21:32.089Z,99.10
2018-08-11T11:25:34.652Z,98.60
2018-08-11T11:29:37.258Z,98.50
2018-08-11T11:33:39.916Z,98.70
2018-08-11T11:37:45.898Z,98.50
2018-08-11T11:45:59.109Z,99.40
2018-08-11T11:50:08.413Z,98.30
2018-08-11T11:54:11.526Z,98.70
2018-08-11T11:58:14.410Z,98.10
2018-08-11T12:02:17.201Z,97.60
2018-08-11T12:06:19.836Z,96.90
2018-08-11T12:10:22.424Z,96.10
2018-08-11T12:14:25.031Z,95.00
2018-08-11T12:18:27.723Z,95.50
2018-08-11T12:22:30.404Z,95.60
2018-08-11T12:26:33.003Z,94.90
2018-08-11T12:30:35.607Z,94.70
2018-08-11T12:34:38.240Z,94.90
2018-08-11T12:38:40.914Z,95.00
2018-08-11T12:42:43.559Z,94.90
2018-08-11T12:46:46.147Z,95.60
2018-08-11T12:50:48.793Z,95.60
2018-08-11T12:54:51.402Z,95.10
2018-08-11T12:58:54.100Z,94.40
2018-08-11T13:02:56.693Z,93.90
2018-08-11T13:06:59.359Z,93.00
2018-08-11T13:11:01.940Z,92.90
2018-08-11T13:15:05.441Z,92.10
2018-08-11T13:19:08.006Z,92.00
2018-08-11T13:23:10.689Z,92.60
2018-08-11T13:27:14.054Z,91.50
2018-08-11T13:31:16.808Z,91.50
2018-08-11T13:35:19.424Z,92.30
2018-08-11T13:39:22.093Z,91.30
2018-08-11T13:43:24.764Z,89.60
2018-08-11T13:47:27.403Z,86.90
2018-08-11T13:51:30.055Z,88.50
2018-08-11T13:55:32.640Z,90.60
2018-08-11T13:59:35.333Z,85.50
2018-08-11T14:03:38.022Z,82.70
2018-08-11T14:07:40.725Z,85.10
2018-08-11T14:11:43.707Z,83.70
2018-08-11T14:15:46.534Z,80.70
2018-08-11T14:19:49.332Z,78.10
2018-08-11T14:23:51.953Z,81.90
2018-08-11T14:27:54.556Z,82.60
2018-08-11T14:32:11.094Z,83.30
2018-08-11T14:36:14.953Z,79.20
2018-08-11T14:40:17.576Z,77.10
2018-08-11T14:44:20.317Z,79.20
2018-08-11T14:48:23.014Z,78.30
2018-08-11T14:52:25.698Z,75.00
2018-08-11T14:56:28.365Z,72.20
2018-08-11T15:00:31.057Z,69.50
2018-08-11T15:04:33.803Z,69.40
2018-08-11T15:08:36.447Z,71.50
2018-08-11T15:12:39.105Z,68.70
2018-08-11T15:16:41.724Z,70.20
2018-08-11T15:20:44.362Z,70.20
2018-08-11T15:24:47.076Z,72.80
2018-08-11T15:28:49.669Z,71.70
2018-08-11T15:32:52.334Z,75.20
2018-08-11T15:36:54.942Z,74.50
2018-08-11T15:40:57.629Z,74.20
2018-08-11T15:45:00.219Z,77.20
2018-08-11T15:49:02.893Z,74.10
2018-08-11T15:53:05.712Z,76.70
2018-08-11T15:57:08.411Z,76.60
2018-08-11T16:01:11.092Z,77.00
2018-08-11T16:05:13.849Z,77.00
2018-08-11T16:09:16.727Z,79.90
2018-08-11T16:13:19.500Z,80.70
2018-08-11T16:17:22.091Z,79.50
2018-08-11T16:21:24.814Z,81.70
2018-08-11T16:25:27.472Z,81.90
2018-08-11T16:29:30.537Z,82.90
2018-08-11T16:33:33.453Z,84.60
2018-08-11T16:37:36.685Z,80.70
2018-08-11T16:41:39.842Z,80.50
2018-08-11T16:45:42.604Z,81.40
2018-08-11T16:49:45.354Z,83.90
2018-08-11T16:53:48.190Z,83.10
2018-08-11T16:57:51.250Z,82.40
2018-08-11T17:01:54.917Z,83.20
2018-08-11T17:05:58.433Z,85.40
2018-08-11T17:10:02.603Z,86.40
2018-08-11T17:14:12.989Z,84.20
2018-08-11T17:18:16.554Z,86.00
2018-08-11T17:22:24.121Z,85.10
2018-08-11T17:26:27.293Z,85.50
2018-08-11T17:30:33.589Z,87.40
2018-08-11T17:34:37.675Z,88.90
2018-08-11T17:38:40.891Z,87.20
2018-08-11T17:42:44.816Z,85.00
2018-08-11T17:46:50.876Z,86.10
2018-08-11T17:55:15.152Z,87.00
2018-08-11T17:59:18.516Z,88.20
2018-08-11T18:03:22.418Z,84.90
2018-08-11T18:07:31.522Z,86.60
2018-08-11T18:11:35.341Z,89.80
2018-08-11T18:15:44.551Z,88.60
2018-08-11T18:19:47.799Z,90.10
2018-08-11T18:23:55.843Z,90.50
2018-08-11T18:28:00.783Z,90.10
2018-08-11T18:32:04.322Z,90.00
2018-08-11T18:36:08.346Z,91.50
2018-08-11T18:40:11.514Z,90.80
2018-08-11T18:44:15.032Z,92.00
2018-08-11T18:48:20.127Z,93.20
2018-08-11T18:52:26.743Z,92.80
2018-08-11T18:56:31.374Z,93.50
2018-08-11T19:00:43.978Z,93.90
2018-08-11T19:04:51.641Z,94.80
2018-08-11T19:08:56.108Z,95.10
2018-08-11T19:13:00.212Z,95.80
2018-08-11T19:17:05.370Z,96.00
2018-08-11T19:21:18.503Z,95.90
2018-08-11T19:25:23.572Z,96.40
2018-08-11T19:29:27.249Z,97.30
2018-08-11T19:33:32.846Z,97.30
2018-08-11T19:37:39.581Z,97.40
2018-08-11T19:41:43.039Z,98.10
2018-08-11T19:45:47.758Z,98.20
2018-08-11T19:49:52.183Z,98.50
2018-08-11T19:53:56.173Z,98.60
2018-08-11T19:58:06.188Z,98.30
2018-08-11T20:02:10.618Z,98.70
2018-08-11T20:06:13.824Z,99.00
2018-08-11T20:10:23.736Z,98.70
2018-08-11T20:14:27.275Z,98.70
2018-08-11T20:18:30.832Z,99.20
2018-08-11T20:22:35.977Z,98.90
2018-08-11T20:26:42.156Z,99.00
2018-08-11T20:30:48.172Z,99.60
2018-08-11T20:34:58.413Z,99.60
2018-08-11T20:39:10.756Z,99.70
2018-08-11T20:43:15.408Z,99.90
2018-08-11T20:47:20.129Z,99.70
2018-08-11T20:51:23.544Z,99.90
2018-08-11T20:55:26.873Z,99.90
2018-08-11T20:59:29.949Z,99.40
2018-08-11T21:03:32.992Z,99.90
2018-08-11T21:35:43.092Z,99.90
2018-08-11T21:39:46.344Z,99.90
2018-08-11T21:43:50.307Z,99.90
2018-08-11T21:47:53.929Z,99.90
2018-08-11T21:51:58.991Z,99.90
2018-08-11T21:56:03.294Z,99.90
2018-08-11T22:00:49.960Z,99.90
2018-08-11T22:05:02.251Z,99.90
2018-08-11T22:09:11.574Z,99.90
2018-08-11T22:13:14.822Z,99.90
2018-08-11T22:17:18.331Z,99.90
2018-08-11T22:21:26.706Z,99.90
2018-08-11T22:25:38.839Z,99.90
2018-08-11T22:29:48.379Z,99.90
2018-08-11T22:34:02.358Z,99.90
2018-08-11T22:38:09.999Z,99.90
2018-08-11T22:42:15.045Z,99.90
2018-08-11T22:46:27.479Z,99.90
2018-08-11T22:50:34.450Z,99.90
2018-08-11T22:54:40.017Z,99.90
2018-08-11T22:58:53.635Z,99.90
2018-08-11T23:02:58.348Z,99.90
2018-08-11T23:07:20.213Z,99.90
2018-08-11T23:11:30.037Z,99.90
2018-08-11T23:15:49.080Z,99.90
2018-08-11T23:24:17.115Z,99.90
2018-08-11T23:28:21.662Z,99.90
2018-08-11T23:32:30.687Z,99.90
2018-08-11T23:45:36.579Z,99.90
2018-08-11T23:54:58.634Z,99.90
